Time;durP1;ratioP1;P1;durP2;ratioP2;P2;SDS_P1;SDS_P2;PMS_P1;PMS_P2;Temp;Humidity;BMP_temperature;BMP_pressure;BME280_temperature;BME280_humidity;BME280_pressure;Samples;Min_cycle;Max_cycle;Signal;HPM_P1;HPM_P2
2023/01/09 00:01:21;;;;;;;;;;;;;;;;;;5087746;28;19931;-85
2023/01/09 00:03:54;;;;;;;;;;;;;;;;;;5082960;28;19929;-82
2023/01/09 00:06:26;;;;;;;;;;;;;;;;;;5081651;28;19932;-83
2023/01/09 00:08:54;;;;;;;;;;;;;;;;;;5082390;28;20384;-84
2023/01/09 00:11:21;;;;;;;;;;;;;;;;;;5085423;28;20700;-84
2023/01/09 00:13:54;;;;;;;;;;;;;;;;;;5081020;28;19932;-84
2023/01/09 00:16:21;;;;;;;;;;;;;;;;;;5081600;28;19942;-84
2023/01/09 00:18:49;;;;;;;;;;;;;;;;;;5082512;28;19943;-83
2023/01/09 00:21:16;;;;;;;;;;;;;;;;;;5083107;28;19925;-84
2023/01/09 00:23:49;;;;;;;;;;;;;;;;;;5084048;28;19924;-84
2023/01/09 00:26:21;;;;;;;;;;;;;;;;;;5084129;28;19951;-85
2023/01/09 00:28:49;;;;;;;;;;;;;;;;;;5081243;28;19925;-85
2023/01/09 00:31:21;;;;;;;;;;;;;;;;;;5084704;28;19928;-84
2023/01/09 00:33:54;;;;;;;;;;;;;;;;;;5080071;28;19928;-84
2023/01/09 00:36:26;;;;;;;;;;;;;;;;;;5088239;28;19924;-84
2023/01/09 00:38:54;;;;;;;;;;;;;;;;;;5070416;28;20365;-83
2023/01/09 00:41:26;;;;;;;;;;;;;;;;;;5083338;28;20305;-85
2023/01/09 00:43:59;;;;;;;;;;;;;;;;;;5083200;28;19928;-84
2023/01/09 00:46:26;;;;;;;;;;;;;;;;;;5085698;28;19931;-85
2023/01/09 00:48:54;;;;;;;;;;;;;;;;;;5080943;28;19924;-84
2023/01/09 00:51:21;;;;;;;;;;;;;;;;;;5080450;28;19931;-85
2023/01/09 00:53:54;;;;;;;;;;;;;;;;;;5078513;28;19951;-84
2023/01/09 00:56:26;;;;;;;;;;;;;;;;;;5083705;28;19924;-85
2023/01/09 00:58:59;;;;;;;;;;;;;;;;;;5087660;28;20300;-85
2023/01/09 01:01:26;;;;;;;;;;;;;;;;;;5085095;28;19932;-86
2023/01/09 01:03:54;;;;;;;;;;;;;;;;;;5087510;28;19928;-85
2023/01/09 01:09:12;;;;;;;;;;;;;;;;;;5084308;28;19929;-84
2023/01/09 01:11:44;;;;;;;;;;;;;;;;;;5086021;28;19924;-85
2023/01/09 01:14:17;;;;;;;;;;;;;;;;;;5090748;28;19935;-86
2023/01/09 01:16:44;;;;;;;;;;;;;;;;;;5078241;28;19924;-84
2023/01/09 01:19:16;;;;;;;;;;;;;;;;;;5090800;28;19924;-85
2023/01/09 01:21:49;;;;;;;;;;;;;;;;;;5086865;28;19935;-85
2023/01/09 01:24:18;;;;;;;;;;;;;;;;;;5092857;28;19924;-84
2023/01/09 01:26:46;;;;;;;;;;;;;;;;;;5090932;28;20428;-85
2023/01/09 01:29:13;;;;;;;;;;;;;;;;;;5077377;28;19932;-84
2023/01/09 01:31:46;;;;;;;;;;;;;;;;;;5085135;28;20258;-84
2023/01/09 01:34:13;;;;;;;;;;;;;;;;;;5083776;28;19928;-85
2023/01/09 01:36:45;;;;;;;;;;;;;;;;;;5089260;28;19924;-85
2023/01/09 01:39:18;;;;;;;;;;;;;;;;;;5086003;28;19924;-84
2023/01/09 01:41:46;;;;;;;;;;;;;;;;;;5085573;28;19924;-83
2023/01/09 01:44:18;;;;;;;;;;;;;;;;;;5088556;28;19924;-84
2023/01/09 01:46:50;;;;;;;;;;;;;;;;;;5083901;28;20296;-84
2023/01/09 01:49:23;;;;;;;;;;;;;;;;;;5085446;28;19928;-84
2023/01/09 01:51:55;;;;;;;;;;;;;;;;;;5088866;28;20006;-85
2023/01/09 01:54:23;;;;;;;;;;;;;;;;;;5084583;28;19928;-85
2023/01/09 01:56:52;;;;;;;;;;;;;;;;;;5081763;28;19928;-84
2023/01/09 01:59:24;;;;;;;;;;;;;;;;;;5080061;28;19930;-84
2023/01/09 02:01:52;;;;;;;;;;;;;;;;;;5080916;28;19935;-85
2023/01/09 02:04:25;;;;;;;;;;;;;;;;;;5082234;28;19936;-85
2023/01/09 02:06:57;;;;;;;;;;;;;;;;;;5092177;28;19924;-84
2023/01/09 02:09:25;;;;;;;;;;;;;;;;;;5088993;28;19927;-85
2023/01/09 02:11:53;;;;;;;;;;;;;;;;;;5091204;28;20397;-85
2023/01/09 02:14:20;;;;;;;;;;;;;;;;;;5083884;28;19931;-84
2023/01/09 02:16:53;;;;;;;;;;;;;;;;;;5079408;28;19928;-86
2023/01/09 02:19:25;;;;;;;;;;;;;;;;;;5084654;28;19928;-85
2023/01/09 02:21:58;;;;;;;;;;;;;;;;;;5098753;28;19936;-84
2023/01/09 02:24:25;;;;;;;;;;;;;;;;;;5083164;28;19935;-84
2023/01/09 02:26:53;;;;;;;;;;;;;;;;;;5086248;28;19932;-85
2023/01/09 02:29:25;;;;;;;;;;;;;;;;;;5084495;28;19935;-85
2023/01/09 02:31:58;;;;;;;;;;;;;;;;;;5084095;28;19936;-85
2023/01/09 02:34:30;;;;;;;;;;;;;;;;;;5083447;28;19931;-85
2023/01/09 02:36:57;;;;;;;;;;;;;;;;;;5079419;28;19931;-85
2023/01/09 02:39:30;;;;;;;;;;;;;;;;;;5091258;28;19924;-85
2023/01/09 02:42:03;;;;;;;;;;;;;;;;;;5083199;28;20369;-85
2023/01/09 02:44:30;;;;;;;;;;;;;;;;;;5084853;28;19928;-85
2023/01/09 02:47:03;;;;;;;;;;;;;;;;;;5080854;28;19939;-85
2023/01/09 02:49:35;;;;;;;;;;;;;;;;;;5087880;28;19940;-84
2023/01/09 02:52:08;;;;;;;;;;;;;;;;;;5080354;28;19928;-85
2023/01/09 02:54:40;;;;;;;;;;;;;;;;;;5077283;28;19928;-84
2023/01/09 02:57:13;;;;;;;;;;;;;;;;;;5086933;28;20269;-82
2023/01/09 02:59:41;;;;;;;;;;;;;;;;;;5081911;28;19924;-84
2023/01/09 03:02:08;;;;;;;;;;;;;;;;;;5083948;28;19924;-83
2023/01/09 03:04:37;;;;;;;;;;;;;;;;;;5084620;28;19928;-85
2023/01/09 03:07:09;;;;;;;;;;;;;;;;;;5084653;28;19924;-85
2023/01/09 03:09:42;;;;;;;;;;;;;;;;;;5083182;28;19932;-85
2023/01/09 03:12:09;;;;;;;;;;;;;;;;;;5080835;28;19925;-85
2023/01/09 03:14:42;;;;;;;;;;;;;;;;;;5084784;28;20663;-84
2023/01/09 03:17:09;;;;;;;;;;;;;;;;;;5084383;28;20293;-84
2023/01/09 03:19:37;;;;;;;;;;;;;;;;;;5081740;28;19931;-86
2023/01/09 03:22:05;;;;;;;;;;;;;;;;;;5081083;28;20295;-85
2023/01/09 03:24:32;;;;;;;;;;;;;;;;;;5084562;28;19931;-85
2023/01/09 03:27:05;;;;;;;;;;;;;;;;;;5082165;28;20380;-85
2023/01/09 03:29:37;;;;;;;;;;;;;;;;;;5081474;28;20392;-85
2023/01/09 03:32:10;;;;;;;;;;;;;;;;;;5090353;28;19935;-84
2023/01/09 03:34:37;;;;;;;;;;;;;;;;;;5083172;28;19928;-85
2023/01/09 03:37:10;;;;;;;;;;;;;;;;;;5085067;28;20411;-85
2023/01/09 03:39:43;;;;;;;;;;;;;;;;;;5082396;28;19931;-85
2023/01/09 03:42:10;;;;;;;;;;;;;;;;;;5089203;28;19932;-85
2023/01/09 03:44:43;;;;;;;;;;;;;;;;;;5079236;28;19924;-85
2023/01/09 03:47:15;;;;;;;;;;;;;;;;;;5084557;28;19933;-84
2023/01/09 03:49:48;;;;;;;;;;;;;;;;;;5087116;28;19924;-84
2023/01/09 03:52:15;;;;;;;;;;;;;;;;;;5085124;28;19931;-84
2023/01/09 03:54:48;;;;;;;;;;;;;;;;;;5081512;28;19931;-85
2023/01/09 03:57:15;;;;;;;;;;;;;;;;;;5080544;28;19925;-85
2023/01/09 03:59:48;;;;;;;;;;;;;;;;;;5083424;28;19924;-85
2023/01/09 04:02:20;;;;;;;;;;;;;;;;;;5081050;28;19939;-85
2023/01/09 04:04:48;;;;;;;;;;;;;;;;;;5082213;28;19924;-85
2023/01/09 04:07:15;;;;;;;;;;;;;;;;;;5083412;28;19928;-84
2023/01/09 04:09:43;;;;;;;;;;;;;;;;;;5082346;28;19932;-85
2023/01/09 04:12:10;;;;;;;;;;;;;;;;;;5081435;28;19935;-84
2023/01/09 04:14:38;;;;;;;;;;;;;;;;;;5070774;28;19925;-85
2023/01/09 04:17:10;;;;;;;;;;;;;;;;;;5078701;28;20292;-83
2023/01/09 04:19:38;;;;;;;;;;;;;;;;;;5082008;28;19924;-85
2023/01/09 04:22:05;;;;;;;;;;;;;;;;;;5082393;28;19924;-85
2023/01/09 04:24:38;;;;;;;;;;;;;;;;;;5089261;28;19924;-85
2023/01/09 04:27:11;;;;;;;;;;;;;;;;;;5076226;28;19924;-85
2023/01/09 04:29:43;;;;;;;;;;;;;;;;;;5087148;28;20389;-85
2023/01/09 04:32:15;;;;;;;;;;;;;;;;;;5085376;28;19924;-84
2023/01/09 04:34:43;;;;;;;;;;;;;;;;;;5088058;28;19932;-85
2023/01/09 04:37:10;;;;;;;;;;;;;;;;;;5091436;28;20308;-85
2023/01/09 04:39:43;;;;;;;;;;;;;;;;;;5085858;28;19924;-87
2023/01/09 04:42:10;;;;;;;;;;;;;;;;;;5082298;28;19934;-86
2023/01/09 04:44:38;;;;;;;;;;;;;;;;;;5087151;28;19932;-86
2023/01/09 04:47:05;;;;;;;;;;;;;;;;;;5103014;28;19932;-87
2023/01/09 04:49:38;;;;;;;;;;;;;;;;;;5086833;28;19925;-86
2023/01/09 04:52:10;;;;;;;;;;;;;;;;;;5085143;28;20631;-86
2023/01/09 04:54:38;;;;;;;;;;;;;;;;;;5086009;28;19928;-87
2023/01/09 04:57:11;;;;;;;;;;;;;;;;;;5083283;28;19931;-84
2023/01/09 04:59:38;;;;;;;;;;;;;;;;;;5085871;28;19931;-86
2023/01/09 05:02:11;;;;;;;;;;;;;;;;;;5082555;28;19929;-85
2023/01/09 05:04:43;;;;;;;;;;;;;;;;;;5086647;28;19924;-85
2023/01/09 05:07:16;;;;;;;;;;;;;;;;;;5088005;28;19935;-88
2023/01/09 05:09:43;;;;;;;;;;;;;;;;;;5089493;28;19935;-86
2023/01/09 05:12:11;;;;;;;;;;;;;;;;;;5092069;28;19928;-87
2023/01/09 05:14:43;;;;;;;;;;;;;;;;;;5081466;28;19928;-87
2023/01/09 05:17:16;;;;;;;;;;;;;;;;;;5085469;28;20353;-87
2023/01/09 05:19:48;;;;;;;;;;;;;;;;;;5085587;28;19924;-86
2023/01/09 05:22:21;;;;;;;;;;;;;;;;;;5086663;28;19928;-88
2023/01/09 05:24:48;;;;;;;;;;;;;;;;;;5085047;28;20296;-85
2023/01/09 05:27:16;;;;;;;;;;;;;;;;;;5090612;28;19928;-87
2023/01/09 05:29:48;;;;;;;;;;;;;;;;;;5081445;28;19933;-89
2023/01/09 05:32:16;;;;;;;;;;;;;;;;;;5083728;28;19928;-86
2023/01/09 05:34:43;;;;;;;;;;;;;;;;;;5090566;28;20369;-87
2023/01/09 05:37:16;;;;;;;;;;;;;;;;;;5084686;28;19924;-88
2023/01/09 05:39:48;;;;;;;;;;;;;;;;;;5083601;28;20369;-87
2023/01/09 05:42:21;;;;;;;;;;;;;;;;;;5085989;28;20403;-89
2023/01/09 05:44:53;;;;;;;;;;;;;;;;;;5082410;28;19936;-86
2023/01/09 05:47:26;;;;;;;;;;;;;;;;;;5090951;28;19931;-88
2023/01/09 05:49:55;;;;;;;;;;;;;;;;;;5085294;28;19931;-89
2023/01/09 05:52:22;;;;;;;;;;;;;;;;;;5081765;28;19932;-86
2023/01/09 05:54:55;;;;;;;;;;;;;;;;;;5089976;28;19932;-86
2023/01/09 05:57:28;;;;;;;;;;;;;;;;;;5084031;28;19924;-89
2023/01/09 06:00:01;;;;;;;;;;;;;;;;;;5083789;28;19928;-87
2023/01/09 06:02:33;;;;;;;;;;;;;;;;;;5085850;28;19928;-83
2023/01/09 06:05:00;;;;;;;;;;;;;;;;;;5077537;28;19935;-87
2023/01/09 06:07:28;;;;;;;;;;;;;;;;;;5085216;28;19928;-87
2023/01/09 06:09:55;;;;;;;;;;;;;;;;;;5090346;28;19932;-87
2023/01/09 06:12:28;;;;;;;;;;;;;;;;;;5081397;28;20527;-87
2023/01/09 06:15:00;;;;;;;;;;;;;;;;;;5090572;28;20369;-86
2023/01/09 06:17:33;;;;;;;;;;;;;;;;;;5084558;28;19932;-86
2023/01/09 06:20:05;;;;;;;;;;;;;;;;;;5085160;28;19939;-83
2023/01/09 06:22:38;;;;;;;;;;;;;;;;;;5083979;28;19935;-85
2023/01/09 06:25:10;;;;;;;;;;;;;;;;;;5083449;28;19928;-86
2023/01/09 06:27:38;;;;;;;;;;;;;;;;;;5085993;28;19928;-85
2023/01/09 06:30:10;;;;;;;;;;;;;;;;;;5082996;28;19939;-86
2023/01/09 06:32:43;;;;;;;;;;;;;;;;;;5079504;28;19932;-86
2023/01/09 06:35:19;;;;;;;;;;;;;;;;;;5084794;28;19932;-84
2023/01/09 06:37:51;;;;;;;;;;;;;;;;;;5082448;28;20296;-86
2023/01/09 06:40:24;;;;;;;;;;;;;;;;;;5080837;28;19928;-86
2023/01/09 06:42:56;;;;;;;;;;;;;;;;;;5071395;28;20013;-84
2023/01/09 06:45:29;;;;;;;;;;;;;;;;;;5073909;28;19928;-84
2023/01/09 06:48:02;;;;;;;;;;;;;;;;;;5070203;28;19986;-82
2023/01/09 06:50:29;;;;;;;;;;;;;;;;;;5069150;28;19942;-85
2023/01/09 06:53:02;;;;;;;;;;;;;;;;;;5066244;28;19935;-83
2023/01/09 06:55:34;;;;;;;;;;;;;;;;;;5072818;28;20308;-85
2023/01/09 06:58:07;;;;;;;;;;;;;;;;;;5062656;28;20372;-83
2023/01/09 07:00:39;;;;;;;;;;;;;;;;;;5061928;28;19932;-83
2023/01/09 07:03:18;;;;;;;;;;;;;;;;;;5068960;28;19936;-84
2023/01/09 07:05:50;;;;;;;;;;;;;;;;;;5062339;28;19932;-82
2023/01/09 07:08:23;;;;;;;;;;;;;;;;;;5062466;28;19932;-85
2023/01/09 07:10:50;;;;;;;;;;;;;;;;;;5062383;28;19932;-81
2023/01/09 07:13:18;;;;;;;;;;;;;;;;;;5064156;28;19932;-85
2023/01/09 07:15:45;;;;;;;;;;;;;;;;;;5063267;28;19943;-87
2023/01/09 07:18:18;;;;;;;;;;;;;;;;;;5065861;28;19932;-85
2023/01/09 07:20:46;;;;;;;;;;;;;;;;;;5069200;28;19939;-85
2023/01/09 07:23:18;;;;;;;;;;;;;;;;;;5069844;28;20261;-86
2023/01/09 07:25:46;;;;;;;;;;;;;;;;;;5065615;28;19932;-84
2023/01/09 07:28:13;;;;;;;;;;;;;;;;;;5061183;28;20301;-84
2023/01/09 07:30:46;;;;;;;;;;;;;;;;;;5062879;28;19932;-84
2023/01/09 07:33:18;;;;;;;;;;;;;;;;;;5060534;28;19932;-85
2023/01/09 07:35:51;;;;;;;;;;;;;;;;;;5080375;28;19928;-87
2023/01/09 07:38:18;;;;;;;;;;;;;;;;;;5086903;28;19936;-86
2023/01/09 07:40:51;;;;;;;;;;;;;;;;;;5081168;28;19936;-86
2023/01/09 07:43:24;;;;;;;;;;;;;;;;;;5099823;27;19931;-87
2023/01/09 07:45:58;;;;;;;;;;;;;;;;;;5088407;28;21460;-87
2023/01/09 07:48:25;;;;;;;;;;;;;;;;;;5086162;28;19935;-89
2023/01/09 07:50:58;;;;;;;;;;;;;;;;;;5085383;28;19935;-88
2023/01/09 07:53:25;;;;;;;;;;;;;;;;;;5081702;28;19936;-87
2023/01/09 07:55:58;;;;;;;;;;;;;;;;;;5085161;28;19990;-88
2023/01/09 07:58:30;;;;;;;;;;;;;;;;;;5077643;28;19936;-87
2023/01/09 08:00:58;;;;;;;;;;;;;;;;;;5080712;28;20496;-88
2023/01/09 08:03:26;;;;;;;;;;;;;;;;;;5086366;28;19929;-88
2023/01/09 08:05:54;;;;;;;;;;;;;;;;;;5080911;28;20399;-87
2023/01/09 08:08:22;;;;;;;;;;;;;;;;;;5087167;28;19935;-88
2023/01/09 08:10:49;;;;;;;;;;;;;;;;;;5078820;28;19925;-89
2023/01/09 08:13:22;;;;;;;;;;;;;;;;;;5090459;28;19928;-89
2023/01/09 08:15:54;;;;;;;;;;;;;;;;;;5080566;28;19924;-88
2023/01/09 08:18:27;;;;;;;;;;;;;;;;;;5080412;28;20300;-87
2023/01/09 08:20:59;;;;;;;;;;;;;;;;;;5078919;28;19931;-88
2023/01/09 08:23:32;;;;;;;;;;;;;;;;;;5087354;28;19928;-88
2023/01/09 08:26:04;;;;;;;;;;;;;;;;;;5071773;28;20392;-88
2023/01/09 08:28:32;;;;;;;;;;;;;;;;;;5080586;28;19928;-88
2023/01/09 08:31:04;;;;;;;;;;;;;;;;;;5082686;28;19925;-87
2023/01/09 08:33:32;;;;;;;;;;;;;;;;;;5080033;28;19935;-86
2023/01/09 08:36:04;;;;;;;;;;;;;;;;;;5083044;28;19924;-87
2023/01/09 08:38:37;;;;;;;;;;;;;;;;;;5080364;28;19939;-85
2023/01/09 08:47:04;;;;;;;;;;;;;;;;;;5080387;28;19935;-87
2023/01/09 08:47:06;;;;;;;;;;;;;;;;;;5081495;28;20299;-88
2023/01/09 08:49:33;;;;;;;;;;;;;;;;;;5089003;28;19928;-89
2023/01/09 08:52:01;;;;;;;;;;;;;;;;;;5080014;28;19935;-87
2023/01/09 08:54:35;;;;;;;;;;;;;;;;;;5080706;28;20376;-87
2023/01/09 08:57:08;;;;;;;;;;;;;;;;;;5088134;28;19933;-86
2023/01/09 08:59:40;;;;;;;;;;;;;;;;;;5079026;28;19924;-87
2023/01/09 09:02:13;;;;;;;;;;;;;;;;;;5072527;28;19935;-88
2023/01/09 09:04:46;;;;;;;;;;;;;;;;;;5083013;28;19931;-87
2023/01/09 09:07:25;;;;;;;;;;;;;;;;;;5081096;28;19935;-85
2023/01/09 09:09:57;;;;;;;;;;;;;;;;;;5081992;28;19932;-86
2023/01/09 09:12:30;;;;;;;;;;;;;;;;;;5081434;28;19927;-88
2023/01/09 09:15:15;;;;;;;;;;;;;;;;;;5081204;28;19940;-89
2023/01/09 09:17:47;;;;;;;;;;;;;;;;;;5084904;28;20436;-87
2023/01/09 09:20:20;;;;;;;;;;;;;;;;;;5083283;28;19935;-88
2023/01/09 09:22:47;;;;;;;;;;;;;;;;;;5085291;28;19936;-87
2023/01/09 09:25:20;;;;;;;;;;;;;;;;;;5086124;28;19931;-85
2023/01/09 09:27:48;;;;;;;;;;;;;;;;;;5074996;28;19924;-88
2023/01/09 09:30:20;;;;;;;;;;;;;;;;;;5088850;28;19924;-88
2023/01/09 09:32:48;;;;;;;;;;;;;;;;;;5084139;28;19936;-88
2023/01/09 09:35:21;;;;;;;;;;;;;;;;;;5087478;28;19936;-89
2023/01/09 09:37:48;;;;;;;;;;;;;;;;;;5086695;28;19939;-88
2023/01/09 09:40:21;;;;;;;;;;;;;;;;;;5073234;28;19932;-83
2023/01/09 09:45:38;;;;;;;;;;;;;;;;;;5067682;28;19932;-82
2023/01/09 09:48:06;;;;;;;;;;;;;;;;;;5067340;28;20059;-86
2023/01/09 09:50:34;;;;;;;;;;;;;;;;;;5068880;28;19928;-85
2023/01/09 09:53:06;;;;;;;;;;;;;;;;;;5066354;28;21255;-88
2023/01/09 09:55:39;;;;;;;;;;;;;;;;;;5065107;28;19932;-84
2023/01/09 09:58:11;;;;;;;;;;;;;;;;;;5065717;28;19943;-85
2023/01/09 10:00:44;;;;;;;;;;;;;;;;;;5073758;28;19939;-84
2023/01/09 10:03:11;;;;;;;;;;;;;;;;;;5066648;28;20391;-87
2023/01/09 10:05:39;;;;;;;;;;;;;;;;;;5068686;28;19932;-83
2023/01/09 10:08:11;;;;;;;;;;;;;;;;;;5069359;28;20396;-89
2023/01/09 10:10:39;;;;;;;;;;;;;;;;;;5064464;28;19932;-84
2023/01/09 10:15:53;;;;;;;;;;;;;;;;;;5068546;28;19939;-88
2023/01/09 10:18:20;;;;;;;;;;;;;;;;;;5068642;28;19932;-88
2023/01/09 10:20:48;;;;;;;;;;;;;;;;;;5070435;28;20500;-84
2023/01/09 10:23:15;;;;;;;;;;;;;;;;;;5064676;28;20426;-83
2023/01/09 10:25:48;;;;;;;;;;;;;;;;;;5056480;28;19932;-84
2023/01/09 10:28:16;;;;;;;;;;;;;;;;;;5064259;28;20288;-88
2023/01/09 10:30:43;;;;;;;;;;;;;;;;;;5073052;28;19928;-84
2023/01/09 10:33:16;;;;;;;;;;;;;;;;;;5079449;28;19932;-87
2023/01/09 10:35:44;;;;;;;;;;;;;;;;;;5064259;28;19932;-84
2023/01/09 10:38:16;;;;;;;;;;;;;;;;;;5065151;28;19939;-86
2023/01/09 10:40:44;;;;;;;;;;;;;;;;;;5061377;28;19928;-86
2023/01/09 10:43:16;;;;;;;;;;;;;;;;;;5053294;28;19928;-87
2023/01/09 10:45:45;;;;;;;;;;;;;;;;;;5059693;28;19932;-87
2023/01/09 10:48:13;;;;;;;;;;;;;;;;;;5064995;28;19935;-88
2023/01/09 10:50:41;;;;;;;;;;;;;;;;;;5065134;28;19932;-86
2023/01/09 10:53:08;;;;;;;;;;;;;;;;;;5063456;28;19935;-85
2023/01/09 10:55:41;;;;;;;;;;;;;;;;;;5069222;28;19947;-87
2023/01/09 10:58:08;;;;;;;;;;;;;;;;;;5068412;28;20348;-87
2023/01/09 11:00:36;;;;;;;;;;;;;;;;;;5080610;28;19932;-84
2023/01/09 11:03:08;;;;;;;;;;;;;;;;;;5068954;28;19932;-83
2023/01/09 11:05:36;;;;;;;;;;;;;;;;;;5069310;28;19935;-84
2023/01/09 11:08:04;;;;;;;;;;;;;;;;;;5070843;28;20407;-85
2023/01/09 11:10:36;;;;;;;;;;;;;;;;;;5067033;28;19943;-86
2023/01/09 11:13:09;;;;;;;;;;;;;;;;;;5071116;28;19957;-88
2023/01/09 11:15:41;;;;;;;;;;;;;;;;;;5063350;28;19924;-87
2023/01/09 11:18:14;;;;;;;;;;;;;;;;;;5064094;28;19946;-83
2023/01/09 11:20:42;;;;;;;;;;;;;;;;;;5063196;28;19928;-85
2023/01/09 11:23:14;;;;;;;;;;;;;;;;;;5064179;28;19932;-89
2023/01/09 11:25:42;;;;;;;;;;;;;;;;;;5069019;28;20399;-88
2023/01/09 11:28:14;;;;;;;;;;;;;;;;;;5064760;28;19932;-86
2023/01/09 11:30:42;;;;;;;;;;;;;;;;;;5073943;28;20368;-91
2023/01/09 11:33:14;;;;;;;;;;;;;;;;;;5088188;28;20300;-90
2023/01/09 11:35:42;;;;;;;;;;;;;;;;;;5081811;28;19932;-90
2023/01/09 11:38:14;;;;;;;;;;;;;;;;;;5084231;28;20353;-89
2023/01/09 11:40:48;;;;;;;;;;;;;;;;;;5081796;28;19932;-90
2023/01/09 11:43:15;;;;;;;;;;;;;;;;;;5085459;28;19924;-89
2023/01/09 11:45:48;;;;;;;;;;;;;;;;;;5081590;28;19928;-89
2023/01/09 11:48:20;;;;;;;;;;;;;;;;;;5084769;28;20289;-85
2023/01/09 11:50:48;;;;;;;;;;;;;;;;;;5082990;28;20274;-88
2023/01/09 11:53:20;;;;;;;;;;;;;;;;;;5082180;28;19924;-90
2023/01/09 11:55:48;;;;;;;;;;;;;;;;;;5083270;28;19924;-93
2023/01/09 11:58:20;;;;;;;;;;;;;;;;;;5082730;28;20273;-88
2023/01/09 12:00:53;;;;;;;;;;;;;;;;;;5079510;28;19945;-91
2023/01/09 12:03:26;;;;;;;;;;;;;;;;;;5082390;28;19924;-90
2023/01/09 12:05:53;;;;;;;;;;;;;;;;;;5087487;28;19931;-90
2023/01/09 12:08:21;;;;;;;;;;;;;;;;;;5079017;28;19924;-91
2023/01/09 12:10:49;;;;;;;;;;;;;;;;;;5083785;28;19928;-91
2023/01/09 12:13:16;;;;;;;;;;;;;;;;;;5081924;28;20369;-90
2023/01/09 12:15:49;;;;;;;;;;;;;;;;;;5081589;28;19932;-90
2023/01/09 12:18:22;;;;;;;;;;;;;;;;;;5082088;28;19925;-90
2023/01/09 12:20:55;;;;;;;;;;;;;;;;;;5082655;28;19935;-87
2023/01/09 12:23:27;;;;;;;;;;;;;;;;;;5079479;28;19931;-89
2023/01/09 12:25:55;;;;;;;;;;;;;;;;;;5079345;28;19924;-81
2023/01/09 12:28:27;;;;;;;;;;;;;;;;;;5075285;28;19924;-81
2023/01/09 12:30:55;;;;;;;;;;;;;;;;;;5088387;28;19932;-82
2023/01/09 12:33:24;;;;;;;;;;;;;;;;;;5081306;28;19947;-80
2023/01/09 12:35:56;;;;;;;;;;;;;;;;;;5061695;28;20380;-83
2023/01/09 12:38:24;;;;;;;;;;;;;;;;;;5069578;28;19965;-80
2023/01/09 12:40:52;;;;;;;;;;;;;;;;;;5071693;28;19932;-82
2023/01/09 12:43:25;;;;;;;;;;;;;;;;;;5070225;28;19932;-81
2023/01/09 12:45:52;;;;;;;;;;;;;;;;;;5067003;28;20843;-80
2023/01/09 12:48:25;;;;;;;;;;;;;;;;;;5072847;28;19940;-82
2023/01/09 12:50:52;;;;;;;;;;;;;;;;;;5067854;28;19971;-82
2023/01/09 12:53:20;;;;;;;;;;;;;;;;;;5077990;28;19939;-84
2023/01/09 12:55:47;;;;;;;;;;;;;;;;;;5073774;28;19924;-82
2023/01/09 12:58:20;;;;;;;;;;;;;;;;;;5072295;28;19935;-81
2023/01/09 13:00:52;;;;;;;;;;;;;;;;;;5073264;28;19928;-82
2023/01/09 13:03:20;;;;;;;;;;;;;;;;;;5072625;28;20010;-83
2023/01/09 13:05:53;;;;;;;;;;;;;;;;;;5075497;28;19932;-82
2023/01/09 13:08:20;;;;;;;;;;;;;;;;;;5076389;28;19939;-82
2023/01/09 13:10:53;;;;;;;;;;;;;;;;;;5073639;28;19928;-81
2023/01/09 13:13:20;;;;;;;;;;;;;;;;;;5072562;28;19932;-81
2023/01/09 13:15:52;;;;;;;;;;;;;;;;;;5077270;28;19932;-81
2023/01/09 13:18:20;;;;;;;;;;;;;;;;;;5073659;28;19932;-83
2023/01/09 13:20:54;;;;;;;;;;;;;;;;;;5071557;28;19954;-81
2023/01/09 13:23:22;;;;;;;;;;;;;;;;;;5068845;28;19935;-82
2023/01/09 13:25:56;;;;;;;;;;;;;;;;;;5070559;28;19931;-83
2023/01/09 13:28:30;;;;;;;;;;;;;;;;;;5068792;28;19951;-84
2023/01/09 13:31:02;;;;;;;;;;;;;;;;;;5079726;28;20466;-81
2023/01/09 13:33:35;;;;;;;;;;;;;;;;;;5078462;27;19932;-83
2023/01/09 13:36:02;;;;;;;;;;;;;;;;;;5072964;28;19925;-82
2023/01/09 13:38:30;;;;;;;;;;;;;;;;;;5070340;28;19939;-83
2023/01/09 13:42:34;;;;;;;;;;;;;;;;;;5072504;28;19932;-83
2023/01/09 13:43:50;;;;;;;;;;;;;;;;;;5070770;28;19932;-81
2023/01/09 13:46:18;;;;;;;;;;;;;;;;;;5069118;28;19940;-82
2023/01/09 13:48:50;;;;;;;;;;;;;;;;;;5066809;28;19932;-82
2023/01/09 13:51:22;;;;;;;;;;;;;;;;;;5081811;28;19936;-82
2023/01/09 13:53:55;;;;;;;;;;;;;;;;;;5072415;28;19932;-84
2023/01/09 13:56:23;;;;;;;;;;;;;;;;;;5073140;28;19932;-83
2023/01/09 13:58:50;;;;;;;;;;;;;;;;;;5065371;28;19932;-84
2023/01/09 14:01:22;;;;;;;;;;;;;;;;;;5069042;28;20399;-82
2023/01/09 14:03:50;;;;;;;;;;;;;;;;;;5070673;28;20013;-84
2023/01/09 14:06:17;;;;;;;;;;;;;;;;;;5071775;28;19932;-82
2023/01/09 14:08:50;;;;;;;;;;;;;;;;;;5066008;28;19959;-83
2023/01/09 14:11:18;;;;;;;;;;;;;;;;;;5074843;28;20391;-82
2023/01/09 14:13:46;;;;;;;;;;;;;;;;;;5072522;28;19932;-83
2023/01/09 14:16:13;;;;;;;;;;;;;;;;;;5069965;28;19932;-82
2023/01/09 14:18:46;;;;;;;;;;;;;;;;;;5065772;28;19932;-87
2023/01/09 14:21:13;;;;;;;;;;;;;;;;;;5063987;28;20632;-84
2023/01/09 14:23:46;;;;;;;;;;;;;;;;;;5069359;28;19932;-82
2023/01/09 14:26:13;;;;;;;;;;;;;;;;;;5068763;28;19938;-84
2023/01/09 14:28:46;;;;;;;;;;;;;;;;;;5069896;28;19932;-82
2023/01/09 14:31:18;;;;;;;;;;;;;;;;;;5065102;28;19924;-81
2023/01/09 14:33:46;;;;;;;;;;;;;;;;;;5073134;28;19954;-81
2023/01/09 14:36:20;;;;;;;;;;;;;;;;;;5056641;28;20380;-82
2023/01/09 14:38:48;;;;;;;;;;;;;;;;;;5063546;28;19932;-84
2023/01/09 14:41:15;;;;;;;;;;;;;;;;;;5072391;28;19932;-84
2023/01/09 14:43:48;;;;;;;;;;;;;;;;;;5070044;28;19932;-82
2023/01/09 14:46:21;;;;;;;;;;;;;;;;;;5065250;28;21238;-83
2023/01/09 14:48:53;;;;;;;;;;;;;;;;;;5060453;28;19954;-84
2023/01/09 14:51:26;;;;;;;;;;;;;;;;;;5064830;28;19939;-82
2023/01/09 14:54:00;;;;;;;;;;;;;;;;;;5063949;28;19939;-84
2023/01/09 14:56:28;;;;;;;;;;;;;;;;;;5062184;28;19932;-83
2023/01/09 14:59:00;;;;;;;;;;;;;;;;;;5069179;28;19932;-82
2023/01/09 15:01:33;;;;;;;;;;;;;;;;;;5072635;28;20061;-82
2023/01/09 15:04:00;;;;;;;;;;;;;;;;;;5081825;28;19939;-83
2023/01/09 15:06:28;;;;;;;;;;;;;;;;;;5067514;28;19932;-81
2023/01/09 15:08:55;;;;;;;;;;;;;;;;;;5082413;28;19932;-82
2023/01/09 15:11:23;;;;;;;;;;;;;;;;;;5067986;28;19928;-82
2023/01/09 15:13:51;;;;;;;;;;;;;;;;;;5069122;28;19939;-82
2023/01/09 15:16:18;;;;;;;;;;;;;;;;;;5068252;28;19932;-82
2023/01/09 15:18:46;;;;;;;;;;;;;;;;;;5064828;28;19931;-83
2023/01/09 15:21:19;;;;;;;;;;;;;;;;;;5070186;28;19969;-84
2023/01/09 15:23:46;;;;;;;;;;;;;;;;;;5068486;28;20392;-83
2023/01/09 15:26:14;;;;;;;;;;;;;;;;;;5066447;28;19932;-83
2023/01/09 15:28:41;;;;;;;;;;;;;;;;;;5068083;28;19943;-84
2023/01/09 15:31:14;;;;;;;;;;;;;;;;;;5065750;28;19935;-83
2023/01/09 15:33:42;;;;;;;;;;;;;;;;;;5060903;28;20694;-84
2023/01/09 15:36:14;;;;;;;;;;;;;;;;;;5063707;28;19939;-84
2023/01/09 15:38:42;;;;;;;;;;;;;;;;;;5058420;28;19932;-83
2023/01/09 15:42:53;;;;;;;;;;;;;;;;;;5062620;28;19932;-83
2023/01/09 15:44:02;;;;;;;;;;;;;;;;;;5063377;28;19932;-83
2023/01/09 15:46:30;;;;;;;;;;;;;;;;;;5068030;28;19932;-87
2023/01/09 15:49:02;;;;;;;;;;;;;;;;;;5067678;28;20771;-86
2023/01/09 15:51:35;;;;;;;;;;;;;;;;;;5072622;28;19932;-87
2023/01/09 15:54:02;;;;;;;;;;;;;;;;;;5064995;28;19935;-84
2023/01/09 15:56:38;;;;;;;;;;;;;;;;;;5063880;28;19932;-85
2023/01/09 15:59:05;;;;;;;;;;;;;;;;;;5066025;28;20384;-82
2023/01/09 16:01:33;;;;;;;;;;;;;;;;;;5067990;28;19932;-83
2023/01/09 16:04:05;;;;;;;;;;;;;;;;;;5064173;28;19939;-83
2023/01/09 16:06:38;;;;;;;;;;;;;;;;;;5071709;28;19943;-83
2023/01/09 16:09:05;;;;;;;;;;;;;;;;;;5065893;28;19942;-83
2023/01/09 16:11:38;;;;;;;;;;;;;;;;;;5065185;28;19932;-83
2023/01/09 16:14:10;;;;;;;;;;;;;;;;;;5066933;28;20411;-84
2023/01/09 16:16:38;;;;;;;;;;;;;;;;;;5063608;28;20304;-83
2023/01/09 16:19:11;;;;;;;;;;;;;;;;;;5064213;28;20383;-84
2023/01/09 16:21:38;;;;;;;;;;;;;;;;;;5062535;28;19931;-83
2023/01/09 16:24:07;;;;;;;;;;;;;;;;;;5063874;28;19932;-83
2023/01/09 16:26:35;;;;;;;;;;;;;;;;;;5067135;28;19932;-84
2023/01/09 16:29:02;;;;;;;;;;;;;;;;;;5059605;28;21152;-84
2023/01/09 16:31:35;;;;;;;;;;;;;;;;;;5061402;28;20380;-85
2023/01/09 16:34:03;;;;;;;;;;;;;;;;;;5068383;28;20330;-84
2023/01/09 16:36:36;;;;;;;;;;;;;;;;;;5085481;28;20685;-85
2023/01/09 16:39:09;;;;;;;;;;;;;;;;;;5072627;28;19932;-83
2023/01/09 16:44:27;;;;;;;;;;;;;;;;;;5063316;28;20002;-83
2023/01/09 16:46:55;;;;;;;;;;;;;;;;;;5062332;28;19928;-84
2023/01/09 16:49:22;;;;;;;;;;;;;;;;;;5065401;28;19932;-83
2023/01/09 16:51:50;;;;;;;;;;;;;;;;;;5071049;28;19932;-85
2023/01/09 16:54:22;;;;;;;;;;;;;;;;;;5070561;28;21146;-84
2023/01/09 16:56:50;;;;;;;;;;;;;;;;;;5062084;28;19935;-83
2023/01/09 16:59:23;;;;;;;;;;;;;;;;;;5067445;28;19938;-84
2023/01/09 17:01:56;;;;;;;;;;;;;;;;;;5064301;28;19932;-84
2023/01/09 17:04:24;;;;;;;;;;;;;;;;;;5062747;28;19932;-84
2023/01/09 17:06:56;;;;;;;;;;;;;;;;;;5067186;28;20395;-84
2023/01/09 17:09:29;;;;;;;;;;;;;;;;;;5066669;28;19939;-83
2023/01/09 17:11:56;;;;;;;;;;;;;;;;;;5076021;28;19939;-84
2023/01/09 17:14:29;;;;;;;;;;;;;;;;;;5062175;28;19932;-85
2023/01/09 17:16:57;;;;;;;;;;;;;;;;;;5062603;28;19939;-84
2023/01/09 17:19:29;;;;;;;;;;;;;;;;;;5064960;28;19932;-83
2023/01/09 17:21:57;;;;;;;;;;;;;;;;;;5059693;28;19932;-83